Airfield :
LOGIN :

Register | Disclaimer

   EN    FR    IT 

 










Legend :    VFR   Marginal VFR   IFR   Intensive IFR   Very Intensive IFR
Visi :
Ceiling :
>= 8 km
>= 3000ft
5 to 8 km
1000 to 3000 ft
1500m to 5 km
500 to 1000 ft
800 to 1500m
200 to 500 ft
< 800m
< 200 ft
Symbols :   Thunderstorms  Fog  Heavy snow  Heavy precipitations  Wind > 20 kt
SIGMETs :     Misc.  Thunderstorms  Icing  Turbulence  Mountain Waves  Volcanic Ashes







- Airport Elevation : 353 ft
- IATA code : ZAG


LDZA - Zagreb Pleso

CURRENT METAR :
  • 230000Z 28004KT CAVOK 05/02 Q1013 NOSIG

EXPIRED METARs :
  • 222330Z VRB02KT CAVOK 06/02 Q1013 NOSIG
  • 222300Z 26005KT CAVOK 06/02 Q1013 NOSIG
  • 222230Z 25005KT CAVOK 06/02 Q1013 TEMPO 24007KT
  • 222200Z 28005KT CAVOK 07/03 Q1013 TEMPO 24007KT
  • 222130Z 30006KT CAVOK 06/02 Q1013 NOSIG

TAF TAF LDZA
Valid from the 23 at 00:00 until the 24 at 00:00 UTC


222325Z 2300/2324 23008KT CAVOK TX16/2313Z TN04/2305Z
TEMPO 2300/2307 23004KT
BECMG 2308/2310 23015KT
PROB30
TEMPO 2321/2324 23018G28KT
ATIS : +385 1 6-259-214
No reported NOTAMs for that airfield.



MET'MAP, your aeronautical weather chart ! - Copyright ORBIFLY December 2007 - Disclaimer

ORBIFLY MET'MAP TEAM :

Programming & Development : Alexandra Zaïnal
Concept & Development : Baudouin d'Aumeries
Co-Development & Prog : Marc-Olivier Méhu
Technical & hardware support : Manuel Goepfert

Contact : metmap@orbifly.com




SOURCES & CREDITS :

   NOAA